Time;durP1;ratioP1;P1;durP2;ratioP2;P2;SDS_P1;SDS_P2;PMS_P1;PMS_P2;Temp;Humidity;BMP_temperature;BMP_pressure;BME280_temperature;BME280_humidity;BME280_pressure;Samples;Min_cycle;Max_cycle;Signal;HPM_P1;HPM_P2
2021/08/23 00:02:05;;;;;;;8.20;4.68;;;;;;;22.91;60.88;100097.44;5113217;28;20047;-72
2021/08/23 00:04:33;;;;;;;9.85;4.97;;;;;;;22.88;60.96;100105.94;5112891;28;20098;-72
2021/08/23 00:07:03;;;;;;;9.88;5.00;;;;;;;22.84;60.77;100100.84;5113069;28;20513;-72
2021/08/23 00:09:32;;;;;;;7.72;4.53;;;;;;;22.84;61.10;100098.13;5095254;28;20112;-78
2021/08/23 00:12:01;;;;;;;7.82;4.65;;;;;;;22.96;60.72;100097.72;5113068;28;20040;-72
2021/08/23 00:14:33;;;;;;;9.50;5.20;;;;;;;22.90;61.63;100101.16;5112942;28;20043;-73
2021/08/23 00:17:01;;;;;;;8.93;4.93;;;;;;;22.77;62.61;100091.63;5112798;28;20044;-70
2021/08/23 00:19:31;;;;;;;8.40;4.82;;;;;;;22.75;62.56;100085.53;5112830;28;20097;-70
2021/08/23 00:22:19;;;;;;;7.50;4.95;;;;;;;22.67;62.97;100076.56;5112660;28;20497;-70
2021/08/23 00:24:48;;;;;;;9.00;5.47;;;;;;;22.58;63.35;100073.00;5112404;28;20039;-70
2021/08/23 00:27:17;;;;;;;7.75;4.90;;;;;;;22.55;63.31;100070.66;5111679;28;20059;-70
2021/08/23 00:29:45;;;;;;;7.72;4.97;;;;;;;22.54;63.85;100079.81;5112752;28;20067;-70
2021/08/23 00:32:14;;;;;;;8.50;4.90;;;;;;;22.51;63.98;100075.59;5113177;28;20088;-69
2021/08/23 00:34:43;;;;;;;9.50;5.45;;;;;;;22.51;63.82;100077.47;5112500;28;20426;-69
2021/08/23 00:37:11;;;;;;;7.68;4.70;;;;;;;22.50;64.14;100076.63;5112705;28;20542;-69
2021/08/23 00:39:40;;;;;;;8.50;4.80;;;;;;;22.52;63.10;100068.28;5112184;28;20067;-70
2021/08/23 00:42:08;;;;;;;8.27;4.70;;;;;;;22.60;62.66;100065.53;5113088;28;20036;-69
2021/08/23 00:44:39;;;;;;;7.25;4.45;;;;;;;22.84;60.43;100060.03;5116263;28;20043;-69
2021/08/23 00:47:11;;;;;;;7.35;4.40;;;;;;;22.77;60.97;100060.88;5116682;28;20097;-69
2021/08/23 00:49:40;;;;;;;7.90;4.40;;;;;;;22.72;60.02;100058.72;5097707;28;20085;-70
2021/08/23 00:52:10;;;;;;;8.07;5.00;;;;;;;22.67;60.24;100062.97;5116290;28;20043;-68
2021/08/23 00:54:39;;;;;;;6.97;4.78;;;;;;;22.71;59.53;100056.16;5115950;28;20048;-71
2021/08/23 00:57:08;;;;;;;8.98;4.75;;;;;;;22.75;59.32;100057.50;5116277;28;20039;-70
2021/08/23 00:59:40;;;;;;;7.57;4.40;;;;;;;22.81;58.78;100057.66;5115872;28;20122;-73
2021/08/23 01:02:15;;;;;;;7.88;4.43;;;;;;;22.78;58.81;100051.72;5116453;28;20043;-70
2021/08/23 01:04:50;;;;;;;8.10;4.57;;;;;;;22.66;58.96;100051.25;5115965;28;20071;-70
2021/08/23 01:07:24;;;;;;;7.55;4.40;;;;;;;22.61;59.40;100050.94;5116308;28;20392;-70
2021/08/23 01:09:57;;;;;;;8.65;4.53;;;;;;;22.54;59.58;100047.22;5115654;28;20044;-70
2021/08/23 01:12:28;;;;;;;7.57;4.68;;;;;;;22.53;59.60;100042.78;5115857;28;20177;-69
2021/08/23 01:14:56;;;;;;;7.95;4.30;;;;;;;22.52;59.53;100041.09;5115375;28;20046;-72
2021/08/23 01:17:25;;;;;;;8.13;4.57;;;;;;;22.45;59.18;100049.09;5115648;28;20377;-71
2021/08/23 01:20:04;;;;;;;9.70;4.80;;;;;;;22.45;59.60;100054.53;5115673;28;20044;-70
2021/08/23 01:22:39;;;;;;;8.40;4.72;;;;;;;22.44;59.80;100054.72;5115742;28;20036;-69
2021/08/23 01:25:09;;;;;;;6.38;4.53;;;;;;;22.46;59.99;100058.09;5115582;28;20040;-70
2021/08/23 01:27:39;;;;;;;8.63;4.72;;;;;;;22.44;60.69;100054.72;5115493;28;20040;-72
2021/08/23 01:30:10;;;;;;;9.35;5.10;;;;;;;22.45;60.96;100045.53;5115652;28;20047;-70
2021/08/23 01:32:41;;;;;;;7.55;5.13;;;;;;;22.44;60.64;100052.00;5115271;28;20050;-70
2021/08/23 01:35:09;;;;;;;11.18;5.55;;;;;;;22.42;60.49;100056.75;5115466;28;20051;-69
2021/08/23 01:37:37;;;;;;;8.43;4.63;;;;;;;22.42;60.36;100048.59;5115203;28;20127;-76
2021/08/23 01:40:07;;;;;;;6.82;4.32;;;;;;;22.46;60.35;100052.66;5115589;28;20058;-68
2021/08/23 01:42:40;;;;;;;11.48;4.97;;;;;;;22.46;60.50;100063.53;5115580;28;20044;-76
2021/08/23 01:45:09;;;;;;;7.05;4.55;;;;;;;22.47;60.72;100059.78;5115518;28;20035;-69
2021/08/23 01:47:37;;;;;;;8.48;5.10;;;;;;;22.44;61.05;100060.16;5115371;28;20067;-69
2021/08/23 01:50:08;;;;;;;9.18;5.18;;;;;;;22.44;61.34;100049.28;5115129;28;20062;-69
2021/08/23 01:52:36;;;;;;;7.85;5.10;;;;;;;22.44;61.31;100054.72;5115405;28;20540;-69
2021/08/23 01:55:06;;;;;;;6.50;4.50;;;;;;;22.40;61.31;100058.81;5115252;28;20040;-70
2021/08/23 01:57:34;;;;;;;7.30;4.68;;;;;;;22.43;61.73;100063.88;5115098;28;20484;-69
2021/08/23 02:00:03;;;;;;;7.35;4.70;;;;;;;22.44;61.53;100065.59;5114659;28;20040;-69
2021/08/23 02:02:32;;;;;;;7.78;4.72;;;;;;;22.44;61.18;100060.16;5114754;28;20043;-71
2021/08/23 02:05:00;;;;;;;7.80;4.82;;;;;;;22.51;61.02;100061.16;5114792;28;20442;-69
2021/08/23 02:07:30;;;;;;;7.53;5.03;;;;;;;22.52;61.09;100060.97;5114922;28;20040;-69
2021/08/23 02:09:58;;;;;;;8.38;4.80;;;;;;;22.52;61.44;100057.41;5114633;28;20078;-69
2021/08/23 02:12:27;;;;;;;8.10;4.75;;;;;;;22.49;61.82;100052.34;5115015;28;20039;-69
2021/08/23 02:14:55;;;;;;;7.43;4.70;;;;;;;22.42;62.82;100048.59;5114402;28;20403;-69
2021/08/23 02:17:23;;;;;;;10.10;5.07;;;;;;;22.57;62.36;100082.19;5114501;28;20062;-69
2021/08/23 02:19:52;;;;;;;7.53;4.70;;;;;;;22.65;62.15;100101.19;5114290;28;20135;-69
2021/08/23 02:22:20;;;;;;;8.57;5.30;;;;;;;22.59;63.96;100101.91;5114531;28;20409;-69
2021/08/23 02:24:50;;;;;;;9.20;5.72;;;;;;;22.43;64.54;100096.50;5113991;28;20130;-69
2021/08/23 02:27:19;;;;;;;10.43;5.72;;;;;;;22.51;64.33;100091.06;5114512;28;20122;-69
2021/08/23 02:29:47;;;;;;;7.72;5.53;;;;;;;22.60;64.43;100092.72;5113982;28;20043;-69
2021/08/23 02:32:15;;;;;;;9.13;5.43;;;;;;;22.27;65.48;100092.78;5096182;28;20488;-69
2021/08/23 02:34:43;;;;;;;10.65;5.28;;;;;;;22.19;66.18;100083.78;5113912;28;20045;-69
2021/08/23 02:37:12;;;;;;;8.70;5.88;;;;;;;22.30;65.35;100083.44;5114272;28;20067;-68
2021/08/23 02:39:40;;;;;;;8.07;5.40;;;;;;;22.22;66.05;100089.72;5114174;28;20059;-69
2021/08/23 02:42:10;;;;;;;8.90;6.32;;;;;;;22.16;66.44;100087.69;5096092;28;20106;-69
2021/08/23 02:44:38;;;;;;;7.90;6.10;;;;;;;22.19;66.72;100090.06;5114042;28;20048;-69
2021/08/23 02:47:06;;;;;;;10.93;5.57;;;;;;;22.21;66.95;100092.63;5113741;28;20032;-69
2021/08/23 02:49:34;;;;;;;6.82;5.22;;;;;;;22.15;67.49;100096.88;5114102;28;20078;-69
2021/08/23 02:52:02;;;;;;;11.65;6.03;;;;;;;22.16;67.95;100097.72;5113768;28;20626;-69
2021/08/23 02:54:31;;;;;;;10.05;6.00;;;;;;;22.00;69.12;100102.09;5113926;28;20130;-69
2021/08/23 02:56:59;;;;;;;8.52;5.95;;;;;;;21.99;70.02;100104.97;5113465;28;20369;-71
2021/08/23 02:59:29;;;;;;;9.55;6.25;;;;;;;21.76;72.16;100095.81;5114093;28;20044;-70
2021/08/23 03:01:57;;;;;;;9.43;6.28;;;;;;;21.76;72.70;100095.81;5113324;28;20047;-70
2021/08/23 03:04:25;;;;;;;9.40;6.43;;;;;;;21.71;73.68;100086.31;5113810;28;20071;-68
2021/08/23 03:06:53;;;;;;;9.57;6.90;;;;;;;21.69;73.78;100085.59;5112965;28;20438;-71
2021/08/23 03:09:21;;;;;;;11.95;6.80;;;;;;;21.70;74.30;100090.00;5113543;28;20043;-71
2021/08/23 03:11:49;;;;;;;9.70;6.50;;;;;;;21.61;75.15;100096.44;5113542;28;20096;-71
2021/08/23 03:14:18;;;;;;;9.75;6.68;;;;;;;21.60;75.47;100089.31;5113449;28;20043;-71
2021/08/23 03:16:47;;;;;;;10.27;6.28;;;;;;;21.63;75.34;100094.44;5113389;28;20039;-72
2021/08/23 03:19:15;;;;;;;10.05;7.07;;;;;;;21.76;74.91;100088.50;5113578;28;20035;-71
2021/08/23 03:21:43;;;;;;;9.38;6.43;;;;;;;21.68;75.51;100091.22;5113522;28;20054;-74
2021/08/23 03:24:12;;;;;;;9.85;6.35;;;;;;;21.75;75.31;100083.25;5113706;28;20047;-71
2021/08/23 03:26:43;;;;;;;11.02;6.45;;;;;;;21.62;75.91;100086.47;5113698;28;20040;-69
2021/08/23 03:29:16;;;;;;;10.13;6.47;;;;;;;21.74;75.36;100084.28;5113685;28;20069;-71
2021/08/23 03:31:44;;;;;;;9.15;6.25;;;;;;;21.74;75.47;100089.69;5113655;28;20118;-77
2021/08/23 03:34:14;;;;;;;10.25;6.47;;;;;;;21.66;76.05;100093.25;5113388;28;20047;-72
2021/08/23 03:36:46;;;;;;;10.68;6.47;;;;;;;21.64;76.26;100095.28;5113283;28;20112;-71
2021/08/23 03:39:16;;;;;;;10.32;6.57;;;;;;;21.81;75.17;100102.44;5113444;28;20480;-71
2021/08/23 03:41:44;;;;;;;10.60;6.53;;;;;;;21.75;75.44;100102.25;5113372;28;20492;-68
2021/08/23 03:44:12;;;;;;;8.02;6.15;;;;;;;21.68;75.17;100111.06;5113462;28;20043;-68
2021/08/23 03:46:41;;;;;;;9.77;6.53;;;;;;;21.58;77.42;100112.22;5113090;28;20046;-72
2021/08/23 03:49:09;;;;;;;11.32;6.82;;;;;;;21.58;77.70;100102.22;5113245;28;20386;-71
2021/08/23 03:51:39;;;;;;;11.73;7.15;;;;;;;21.46;79.34;100108.97;5113085;28;20040;-69
2021/08/23 03:54:07;;;;;;;9.25;6.45;;;;;;;21.58;79.23;100118.50;5112848;28;20048;-69
2021/08/23 03:56:35;;;;;;;10.55;7.25;;;;;;;21.52;80.07;100110.16;5113239;28;20048;-69
2021/08/23 03:59:04;;;;;;;8.88;6.63;;;;;;;21.34;81.91;100116.59;5112822;28;20208;-69
2021/08/23 04:01:32;;;;;;;9.45;6.70;;;;;;;21.32;82.90;100123.16;5112776;28;20078;-69
2021/08/23 04:04:01;;;;;;;9.07;6.93;;;;;;;21.25;83.25;100114.81;5112859;28;20040;-69
2021/08/23 04:06:31;;;;;;;8.93;7.07;;;;;;;21.28;84.09;100110.97;5113311;28;20043;-70
2021/08/23 04:09:00;;;;;;;9.48;6.63;;;;;;;21.39;84.06;100110.66;5112677;28;20043;-71
2021/08/23 04:11:28;;;;;;;11.70;7.35;;;;;;;21.30;84.52;100119.78;5112910;28;20415;-71
2021/08/23 04:13:57;;;;;;;10.35;7.38;;;;;;;21.27;84.68;100120.97;5112348;28;20047;-71
2021/08/23 04:16:25;;;;;;;9.68;6.90;;;;;;;21.19;86.40;100133.59;5094808;28;20062;-70
2021/08/23 04:18:53;;;;;;;10.00;7.85;;;;;;;21.19;86.95;100133.59;5115685;28;20054;-70
2021/08/23 04:21:21;;;;;;;11.02;7.80;;;;;;;21.08;88.78;100138.31;5117296;28;20096;-69
2021/08/23 04:23:49;;;;;;;11.23;6.93;;;;;;;21.12;89.17;100150.53;5116485;28;20047;-73
2021/08/23 04:26:19;;;;;;;12.48;6.65;;;;;;;21.09;89.25;100145.44;5116573;28;20067;-72
2021/08/23 04:28:47;;;;;;;9.38;7.40;;;;;;;21.11;89.54;100137.97;5116664;28;20073;-71
2021/08/23 04:31:16;;;;;;;10.48;7.03;;;;;;;21.04;90.05;100136.94;5116706;28;20120;-72
2021/08/23 04:33:46;;;;;;;10.23;7.30;;;;;;;21.04;90.49;100149.66;5116703;28;20480;-72
2021/08/23 04:36:15;;;;;;;13.63;7.72;;;;;;;21.09;90.07;100144.59;5116582;28;20051;-71
2021/08/23 04:38:43;;;;;;;8.88;7.00;;;;;;;21.02;90.88;100144.38;5116336;28;20043;-71
2021/08/23 04:41:11;;;;;;;9.23;7.00;;;;;;;21.01;90.73;100153.53;5116584;28;20453;-72
2021/08/23 04:43:41;;;;;;;9.80;7.47;;;;;;;21.01;90.60;100158.09;5116341;28;20459;-71
2021/08/23 04:46:09;;;;;;;11.52;7.50;;;;;;;20.97;90.73;100162.16;5115925;28;20047;-71
2021/08/23 04:48:37;;;;;;;13.05;7.25;;;;;;;20.93;91.10;100161.59;5116568;28;20452;-71
2021/08/23 04:51:07;;;;;;;10.50;7.00;;;;;;;21.04;90.95;100165.94;5116377;28;20039;-71
2021/08/23 04:53:35;;;;;;;9.18;7.10;;;;;;;21.00;91.02;100165.38;5116565;28;20047;-71
2021/08/23 04:56:09;;;;;;;9.02;6.63;;;;;;;21.09;90.57;100167.13;5116246;28;20039;-71
2021/08/23 04:58:37;;;;;;;11.48;6.78;;;;;;;21.08;90.67;100175.44;5116385;28;20042;-71
2021/08/23 05:01:07;;;;;;;9.85;6.90;;;;;;;21.24;89.69;100175.50;5116074;28;20395;-72
2021/08/23 05:03:36;;;;;;;11.90;6.93;;;;;;;21.23;89.78;100175.66;5116220;28;20457;-71
2021/08/23 05:06:04;;;;;;;10.55;6.82;;;;;;;21.25;89.59;100184.50;5115810;28;20039;-71
2021/08/23 05:08:32;;;;;;;10.45;6.80;;;;;;;21.22;89.00;100179.38;5116256;28;20047;-71
2021/08/23 05:11:01;;;;;;;7.82;5.88;;;;;;;21.25;88.57;100170.94;5115860;28;20096;-71
2021/08/23 05:13:29;;;;;;;8.77;5.50;;;;;;;21.30;87.60;100174.03;5115928;28;20130;-71
2021/08/23 05:15:57;;;;;;;8.93;5.80;;;;;;;21.43;86.86;100158.16;5116066;28;20063;-72
2021/08/23 05:18:27;;;;;;;8.30;5.70;;;;;;;21.57;85.88;100156.66;5115855;28;20088;-71
2021/08/23 05:20:57;;;;;;;9.00;6.15;;;;;;;21.62;84.99;100155.16;5115768;28;20069;-72
2021/08/23 05:23:26;;;;;;;9.18;6.13;;;;;;;21.76;84.02;100159.09;5115853;28;20039;-71
2021/08/23 05:25:54;;;;;;;8.93;6.03;;;;;;;22.07;82.03;100162.03;5115706;28;20381;-73
2021/08/23 05:28:22;;;;;;;9.23;5.75;;;;;;;22.21;80.12;100172.25;5114908;28;20480;-70
2021/08/23 05:30:51;;;;;;;9.75;5.65;;;;;;;22.36;78.53;100172.41;5115147;28;20040;-71
2021/08/23 05:33:19;;;;;;;10.90;6.20;;;;;;;22.31;77.74;100180.25;5115397;28;20128;-72
2021/08/23 05:35:48;;;;;;;8.80;5.53;;;;;;;22.48;77.00;100181.91;5095203;28;20119;-71
2021/08/23 05:38:17;;;;;;;7.53;5.22;;;;;;;22.42;76.52;100189.91;5114840;28;20392;-71
2021/08/23 05:40:45;;;;;;;7.63;5.38;;;;;;;22.44;76.36;100186.00;5115738;28;20082;-70
2021/08/23 05:43:13;;;;;;;9.25;5.28;;;;;;;22.68;75.45;100184.28;5115567;28;20067;-71
2021/08/23 05:45:42;;;;;;;8.38;5.15;;;;;;;22.94;73.52;100186.81;5114866;28;20043;-70
2021/08/23 05:48:10;;;;;;;7.10;4.95;;;;;;;23.21;72.00;100193.72;5115010;28;20067;-71
2021/08/23 05:50:38;;;;;;;6.65;4.68;;;;;;;23.41;70.71;100201.28;5115400;28;20073;-70
2021/08/23 05:53:08;;;;;;;7.68;4.43;;;;;;;23.40;69.74;100207.75;5114718;28;20460;-70
2021/08/23 05:55:38;;;;;;;8.40;4.97;;;;;;;23.00;71.55;100202.44;5115087;28;20036;-70
2021/08/23 05:58:07;;;;;;;7.43;4.57;;;;;;;22.72;73.01;100210.97;5115240;28;20374;-70
2021/08/23 06:00:35;;;;;;;7.20;4.72;;;;;;;22.63;73.54;100213.84;5115156;28;20393;-69
2021/08/23 06:03:03;;;;;;;7.60;5.55;;;;;;;22.52;75.15;100210.47;5114891;28;20118;-69
2021/08/23 06:05:32;;;;;;;9.45;5.88;;;;;;;22.35;76.35;100208.75;5115087;28;20498;-68
2021/08/23 06:08:02;;;;;;;7.95;6.10;;;;;;;22.22;77.88;100206.56;5114705;28;20044;-69
2021/08/23 06:10:31;;;;;;;8.77;6.25;;;;;;;22.19;78.48;100215.00;5115201;28;20409;-69
2021/08/23 06:13:00;;;;;;;8.15;6.10;;;;;;;22.27;77.84;100215.03;5114989;28;20059;-69
2021/08/23 06:15:30;;;;;;;10.60;6.35;;;;;;;22.39;77.67;100209.25;5115119;28;20036;-69
2021/08/23 06:17:58;;;;;;;10.52;6.18;;;;;;;22.54;76.81;100218.44;5114677;28;20047;-68
2021/08/23 06:20:27;;;;;;;9.60;6.63;;;;;;;22.50;76.81;100212.50;5114387;28;20120;-68
2021/08/23 06:22:56;;;;;;;9.98;6.03;;;;;;;22.31;77.93;100212.84;5114593;28;20100;-69
2021/08/23 06:25:24;;;;;;;9.05;6.35;;;;;;;22.12;79.29;100224.88;5114544;28;20050;-69
2021/08/23 06:27:54;;;;;;;11.27;6.30;;;;;;;22.03;79.78;100230.44;5114154;28;20035;-71
2021/08/23 06:30:23;;;;;;;10.57;6.38;;;;;;;21.74;81.66;100236.28;5114010;28;20047;-69
2021/08/23 06:32:51;;;;;;;8.77;6.13;;;;;;;21.58;83.04;100235.19;5111214;28;20046;-69
2021/08/23 06:35:20;;;;;;;9.18;6.45;;;;;;;21.60;83.18;100227.75;5114412;28;20039;-68
2021/08/23 06:37:48;;;;;;;8.98;4.68;;;;;;;21.36;83.08;100238.50;5114214;28;20044;-67
2021/08/23 06:40:17;;;;;;;7.32;4.90;;;;;;;21.14;84.13;100246.16;5113361;28;20488;-67
2021/08/23 06:42:45;;;;;;;6.80;4.32;;;;;;;20.92;85.22;100254.81;5114316;28;20059;-68
2021/08/23 06:45:15;;;;;;;5.85;4.30;;;;;;;20.93;85.03;100242.09;5114000;28;20473;-68
2021/08/23 06:47:43;;;;;;;8.45;3.88;;;;;;;20.89;84.94;100246.16;5114056;28;20040;-71
2021/08/23 06:50:12;;;;;;;6.57;3.38;;;;;;;20.88;84.90;100245.31;5114149;28;20126;-70
2021/08/23 06:52:42;;;;;;;7.15;3.67;;;;;;;20.90;83.88;100237.00;5114017;28;20071;-72
2021/08/23 06:55:10;;;;;;;5.55;3.08;;;;;;;20.81;83.51;100234.22;5113917;28;20468;-69
2021/08/23 06:57:38;;;;;;;5.60;3.10;;;;;;;20.80;83.38;100227.09;5113752;28;20050;-71
2021/08/23 07:00:08;;;;;;;15.05;2.85;;;;;;;20.91;82.47;100223.28;5113464;28;20055;-71
2021/08/23 07:02:38;;;;;;;7.85;3.10;;;;;;;21.00;82.50;100229.59;5114136;28;20047;-71
2021/08/23 07:05:07;;;;;;;6.57;2.97;;;;;;;20.85;82.85;100232.06;5113505;28;20442;-71
2021/08/23 07:07:36;;;;;;;4.60;2.88;;;;;;;20.88;82.55;100239.88;5113639;28;20484;-71
2021/08/23 07:10:05;;;;;;;5.78;3.05;;;;;;;20.94;81.86;100222.97;5113561;28;20042;-71
2021/08/23 07:12:34;;;;;;;4.15;2.60;;;;;;;21.18;81.23;100224.13;5113734;28;20044;-71
2021/08/23 07:15:02;;;;;;;7.15;2.55;;;;;;;21.26;80.18;100225.06;5113522;28;20047;-72
2021/08/23 07:17:31;;;;;;;4.57;2.25;;;;;;;21.42;77.41;100235.13;5114000;28;20503;-71
2021/08/23 07:20:00;;;;;;;5.55;2.65;;;;;;;21.32;77.14;100223.53;5113800;28;20047;-70
2021/08/23 07:22:28;;;;;;;4.25;2.30;;;;;;;21.14;76.33;100229.88;5113569;28;20043;-71
2021/08/23 07:24:56;;;;;;;3.67;2.17;;;;;;;21.19;75.06;100247.53;5113680;28;20043;-70
2021/08/23 07:27:25;;;;;;;4.10;2.10;;;;;;;21.09;74.52;100242.22;5113275;28;20050;-71
2021/08/23 07:29:53;;;;;;;4.30;1.92;;;;;;;21.03;74.85;100238.25;5113451;28;20050;-69
2021/08/23 07:32:21;;;;;;;4.45;2.00;;;;;;;21.17;73.98;100233.28;5113570;28;20047;-71
2021/08/23 07:34:50;;;;;;;4.25;2.38;;;;;;;21.32;73.42;100243.38;5113734;28;20434;-71
2021/08/23 07:37:19;;;;;;;4.05;2.22;;;;;;;21.50;72.53;100234.31;5113410;28;20044;-71
2021/08/23 07:39:47;;;;;;;3.28;1.90;;;;;;;21.70;71.03;100224.88;5113574;28;20504;-69
2021/08/23 07:42:16;;;;;;;3.90;2.10;;;;;;;22.04;69.28;100232.97;5113409;28;20046;-71
2021/08/23 07:44:44;;;;;;;5.38;2.03;;;;;;;21.67;70.09;100228.78;5113607;28;20473;-71
2021/08/23 07:47:12;;;;;;;3.97;1.90;;;;;;;21.78;70.43;100237.66;5113182;28;20400;-71
2021/08/23 07:49:43;;;;;;;3.20;1.90;;;;;;;21.57;71.53;100240.78;5113368;28;20043;-71
2021/08/23 07:52:11;;;;;;;4.68;1.90;;;;;;;21.61;71.06;100234.88;5115011;28;20043;-71
2021/08/23 07:54:42;;;;;;;5.45;2.10;;;;;;;21.65;70.35;100238.97;5117537;28;20479;-71
2021/08/23 07:57:10;;;;;;;3.80;1.80;;;;;;;21.61;70.70;100247.59;5117269;28;20392;-71
2021/08/23 07:59:39;;;;;;;3.20;1.80;;;;;;;21.34;71.04;100224.25;5099607;28;20052;-71
2021/08/23 08:02:07;;;;;;;5.72;2.17;;;;;;;21.65;70.10;100233.53;5117484;28;20039;-71
2021/08/23 08:04:36;;;;;;;3.28;1.60;;;;;;;21.58;70.37;100232.50;5117425;28;20039;-71
2021/08/23 08:07:04;;;;;;;4.72;2.05;;;;;;;21.57;70.49;100229.94;5117275;28;20040;-71
2021/08/23 08:09:32;;;;;;;4.78;1.80;;;;;;;21.36;71.16;100231.22;5117263;28;20043;-71
2021/08/23 08:12:02;;;;;;;3.10;1.85;;;;;;;21.40;70.93;100229.00;5117213;28;20078;-70
2021/08/23 08:14:31;;;;;;;4.00;1.80;;;;;;;21.43;71.18;100234.97;5117329;28;20039;-71
2021/08/23 08:16:59;;;;;;;3.70;1.83;;;;;;;21.51;70.94;100228.72;5117354;28;20044;-70
2021/08/23 08:19:27;;;;;;;3.05;1.80;;;;;;;21.30;71.22;100233.72;5116925;28;20044;-71
2021/08/23 08:21:58;;;;;;;3.30;1.67;;;;;;;21.26;71.19;100226.88;5116845;28;20534;-71
2021/08/23 08:24:26;;;;;;;3.08;1.80;;;;;;;21.41;69.65;100219.84;5116794;28;20044;-71
2021/08/23 08:26:54;;;;;;;3.30;1.90;;;;;;;21.48;69.59;100231.75;5117033;28;20035;-71
2021/08/23 08:29:24;;;;;;;5.47;2.30;;;;;;;21.63;67.99;100219.28;5116455;28;20093;-70
2021/08/23 08:31:52;;;;;;;4.85;2.03;;;;;;;21.55;68.22;100230.09;5116911;28;20041;-70
2021/08/23 08:34:20;;;;;;;5.00;2.03;;;;;;;21.41;68.80;100236.13;5116512;28;20391;-71
2021/08/23 08:36:48;;;;;;;5.18;2.50;;;;;;;21.44;68.51;100235.84;5116635;28;20063;-70
2021/08/23 08:39:17;;;;;;;4.63;2.10;;;;;;;21.55;67.50;100242.81;5116494;28;20131;-71
2021/08/23 08:41:45;;;;;;;4.32;2.38;;;;;;;21.39;68.73;100241.72;5116915;28;20070;-70
2021/08/23 08:44:13;;;;;;;4.22;1.90;;;;;;;21.52;67.83;100246.72;5116404;28;20043;-71
2021/08/23 08:46:46;;;;;;;6.47;2.53;;;;;;;21.45;68.59;100242.09;5116490;28;20119;-71
2021/08/23 08:49:14;;;;;;;4.18;2.40;;;;;;;21.54;68.39;100244.69;5116286;28;20060;-71
2021/08/23 08:51:46;;;;;;;7.20;1.98;;;;;;;21.71;67.46;100243.75;5116593;28;20039;-70
2021/08/23 08:54:14;;;;;;;6.15;2.10;;;;;;;21.86;67.06;100243.09;5116499;28;20093;-70
2021/08/23 08:56:42;;;;;;;3.75;2.05;;;;;;;21.69;67.63;100245.75;5116653;28;20059;-70
2021/08/23 08:59:12;;;;;;;4.50;2.15;;;;;;;22.02;66.33;100250.47;5116353;28;20441;-71
2021/08/23 09:01:40;;;;;;;3.72;2.00;;;;;;;21.87;66.69;100253.78;5116332;28;20090;-71
2021/08/23 09:04:09;;;;;;;5.30;2.33;;;;;;;21.82;66.64;100256.16;5115114;28;20054;-71
2021/08/23 09:06:59;;;;;;;4.05;1.88;;;;;;;21.71;66.92;100257.31;5116407;28;20051;-70
2021/08/23 09:09:27;;;;;;;4.40;2.05;;;;;;;21.46;68.00;100250.09;5115637;28;20121;-70
2021/08/23 09:11:58;;;;;;;4.20;2.17;;;;;;;21.42;69.16;100243.25;5115713;28;20040;-71
2021/08/23 09:14:27;;;;;;;5.20;2.47;;;;;;;21.43;69.41;100245.84;5116031;28;20069;-70
2021/08/23 09:17:03;;;;;;;3.85;2.13;;;;;;;21.49;68.77;100252.47;5115812;28;20040;-70
2021/08/23 09:19:34;;;;;;;4.85;2.85;;;;;;;21.57;69.21;100240.78;5115663;28;20047;-71
2021/08/23 09:22:06;;;;;;;6.07;2.72;;;;;;;21.71;67.76;100238.31;5115932;28;20040;-70
2021/08/23 09:24:39;;;;;;;4.65;2.30;;;;;;;21.76;67.77;100234.25;5115924;28;20058;-70
2021/08/23 09:27:09;;;;;;;4.72;2.67;;;;;;;21.80;68.54;100239.16;5116066;28;20433;-70
2021/08/23 09:29:55;;;;;;;5.30;2.40;;;;;;;21.55;70.01;100240.97;5115772;28;20039;-70
2021/08/23 09:32:24;;;;;;;3.72;2.20;;;;;;;21.48;69.11;100245.34;5115390;28;20098;-70
2021/08/23 09:34:55;;;;;;;4.40;2.30;;;;;;;21.37;69.86;100240.19;5115733;28;20123;-71
2021/08/23 09:37:24;;;;;;;5.05;2.40;;;;;;;21.52;69.07;100245.84;5096815;28;20055;-70
2021/08/23 09:39:54;;;;;;;4.05;2.22;;;;;;;21.49;68.37;100238.88;5115511;28;20052;-70
2021/08/23 09:42:23;;;;;;;3.15;2.15;;;;;;;21.37;68.84;100245.63;5115272;28;20070;-70
2021/08/23 09:44:53;;;;;;;4.30;2.42;;;;;;;21.55;68.08;100235.53;5115298;28;20085;-70
2021/08/23 09:47:27;;;;;;;4.32;2.35;;;;;;;21.48;70.45;100236.34;5115327;28;20396;-71
2021/08/23 09:49:57;;;;;;;3.67;2.53;;;;;;;21.65;71.40;100244.41;5115467;28;20043;-70
2021/08/23 09:52:31;;;;;;;6.25;2.50;;;;;;;21.56;73.64;100242.66;5115049;28;20487;-70
2021/08/23 09:55:04;;;;;;;4.55;2.30;;;;;;;21.42;74.66;100248.69;5115240;28;20489;-70
2021/08/23 09:57:34;;;;;;;4.88;2.47;;;;;;;21.14;73.51;100251.59;5115024;28;20044;-71
2021/08/23 10:00:07;;;;;;;5.88;2.67;;;;;;;20.98;74.23;100251.47;5115251;28;20047;-71
2021/08/23 10:02:36;;;;;;;;;;;;;;;20.98;75.38;100251.47;5115831;28;20054;-70
2021/08/23 10:05:05;;;;;;;4.95;2.67;;;;;;;21.03;76.54;100257.25;5097070;28;19925;-70
2021/08/23 10:07:34;;;;;;;5.97;2.45;;;;;;;20.62;77.50;100255.25;5115554;28;20039;-70
2021/08/23 10:10:02;;;;;;;5.72;2.58;;;;;;;20.66;77.96;100248.53;5114666;28;20093;-70
2021/08/23 10:12:31;;;;;;;4.38;2.58;;;;;;;20.75;75.93;100255.69;5114679;28;20050;-70
2021/08/23 10:14:59;;;;;;;4.03;2.13;;;;;;;20.89;74.91;100243.44;5113695;28;20480;-70
2021/08/23 10:17:35;;;;;;;4.25;2.00;;;;;;;20.93;75.06;100240.22;5114697;28;20131;-71
2021/08/23 10:20:05;;;;;;;5.43;2.55;;;;;;;20.97;75.05;100232.66;5114822;28;20134;-70
2021/08/23 10:22:37;;;;;;;5.75;2.70;;;;;;;20.89;74.99;100232.59;5114468;28;20040;-71
2021/08/23 10:25:08;;;;;;;5.03;2.67;;;;;;;20.87;75.29;100249.03;5114704;28;20035;-70
2021/08/23 10:27:39;;;;;;;3.60;2.30;;;;;;;20.83;75.09;100242.19;5114624;28;20036;-70
2021/08/23 10:30:11;;;;;;;4.97;2.30;;;;;;;20.64;75.96;100245.09;5114599;28;20123;-70
2021/08/23 10:32:40;;;;;;;3.90;2.13;;;;;;;20.55;76.22;100231.47;5114450;28;20078;-70
2021/08/23 10:35:21;;;;;;;4.57;2.60;;;;;;;20.68;76.12;100246.50;5114150;28;20055;-71
2021/08/23 10:37:50;;;;;;;4.30;2.13;;;;;;;20.64;75.54;100245.09;5114748;28;20043;-70
2021/08/23 10:40:24;;;;;;;3.47;1.92;;;;;;;20.51;76.46;100240.09;5114066;28;20058;-71
2021/08/23 10:42:53;;;;;;;6.28;2.10;;;;;;;20.62;76.11;100228.16;5114216;28;20442;-70
2021/08/23 10:45:21;;;;;;;4.30;2.10;;;;;;;20.75;75.83;100225.88;5113988;28;20097;-70
2021/08/23 10:47:49;;;;;;;3.72;2.13;;;;;;;20.66;75.25;100224.97;5114226;28;20039;-71
2021/08/23 10:50:24;;;;;;;3.83;2.15;;;;;;;20.84;74.94;100233.06;5113984;28;20043;-71
2021/08/23 10:52:53;;;;;;;3.67;2.10;;;;;;;20.90;74.65;100232.44;5114377;28;20047;-71
2021/08/23 10:55:23;;;;;;;4.40;2.00;;;;;;;21.00;74.41;100225.03;5113623;28;20043;-70
2021/08/23 10:58:03;;;;;;;4.20;2.20;;;;;;;21.22;72.49;100225.50;5114069;28;20477;-71
2021/08/23 11:00:37;;;;;;;4.63;2.10;;;;;;;21.32;72.62;100216.25;5113705;28;20074;-71
2021/08/23 11:03:06;;;;;;;3.70;2.10;;;;;;;21.29;71.73;100210.31;5114192;28;20119;-70
2021/08/23 11:05:37;;;;;;;4.18;2.20;;;;;;;21.23;70.59;100210.91;5113688;28;20043;-70
2021/08/23 11:08:09;;;;;;;3.40;1.90;;;;;;;21.21;69.70;100219.22;5113887;28;20047;-70
2021/08/23 11:10:40;;;;;;;3.50;1.80;;;;;;;21.17;68.97;100217.00;5113471;28;20492;-71
2021/08/23 11:13:14;;;;;;;4.07;1.90;;;;;;;21.28;70.02;100224.88;5114060;28;20534;-70
2021/08/23 11:15:42;;;;;;;4.28;2.60;;;;;;;21.31;70.69;100219.13;5113834;28;20078;-70
2021/08/23 11:18:13;;;;;;;4.38;2.22;;;;;;;21.20;71.94;100203.97;5113781;28;20062;-70
2021/08/23 11:20:47;;;;;;;6.05;2.60;;;;;;;21.28;71.78;100205.91;5113685;28;20050;-70
2021/08/23 11:23:17;;;;;;;4.55;2.65;;;;;;;21.24;71.64;100202.63;5113572;28;20056;-73
2021/08/23 11:25:48;;;;;;;5.80;2.58;;;;;;;21.19;72.76;100196.00;5113603;28;20112;-70
2021/08/23 11:28:18;;;;;;;4.55;2.10;;;;;;;21.03;74.43;100197.59;5113266;28;20382;-72
2021/08/23 11:30:58;;;;;;;4.55;2.45;;;;;;;20.87;76.82;100202.94;5113811;28;20445;-70
2021/08/23 11:33:31;;;;;;;4.47;2.38;;;;;;;20.78;77.66;100206.59;5113419;28;20044;-71
2021/08/23 11:36:02;;;;;;;4.32;2.25;;;;;;;20.60;78.69;100220.19;5113491;28;20051;-70